Time;durP1;ratioP1;P1;durP2;ratioP2;P2;SDS_P1;SDS_P2;PMS_P1;PMS_P2;Temp;Humidity;BMP_temperature;BMP_pressure;BME280_temperature;BME280_humidity;BME280_pressure;Samples;Min_cycle;Max_cycle;Signal;HPM_P1;HPM_P2
2022/02/21 00:00:05;;;;;;;0.40;0.20;;;;;;;8.86;100.00;98509.94;5013785;28;21000;-72
2022/02/21 00:02:32;;;;;;;0.40;0.30;;;;;;;8.84;100.00;98500.25;5013797;28;20843;-73
2022/02/21 00:04:58;;;;;;;0.40;0.30;;;;;;;8.88;100.00;98494.97;5013661;28;20934;-72
2022/02/21 00:07:24;;;;;;;0.40;0.30;;;;;;;8.92;100.00;98476.19;5013681;28;20436;-71
2022/02/21 00:09:51;;;;;;;0.40;0.30;;;;;;;8.96;100.00;98466.25;5013916;28;20452;-71
2022/02/21 00:12:17;;;;;;;0.40;0.30;;;;;;;8.93;100.00;98458.84;5013516;28;20981;-71
2022/02/21 00:14:44;;;;;;;0.40;0.27;;;;;;;9.04;100.00;98438.34;5013806;28;20452;-72
2022/02/21 00:17:13;;;;;;;0.40;0.20;;;;;;;9.06;100.00;98436.84;5013434;28;21029;-71
2022/02/21 00:19:39;;;;;;;0.40;0.30;;;;;;;9.10;100.00;98428.84;5013734;28;20455;-71
2022/02/21 00:22:06;;;;;;;0.40;0.20;;;;;;;9.13;100.00;98422.78;5013642;28;20463;-71
2022/02/21 00:24:32;;;;;;;0.40;0.30;;;;;;;9.14;100.00;98418.16;5013667;28;20440;-72
2022/02/21 00:26:58;;;;;;;0.40;0.30;;;;;;;9.25;100.00;98411.91;5013660;28;20435;-73
2022/02/21 00:29:25;;;;;;;0.40;0.30;;;;;;;9.25;100.00;98390.31;5013626;28;20830;-72
2022/02/21 00:31:51;;;;;;;0.40;0.30;;;;;;;9.27;100.00;98396.13;5013753;28;20444;-72
2022/02/21 00:34:19;;;;;;;0.40;0.30;;;;;;;9.33;100.00;98380.44;5013522;28;20540;-72
2022/02/21 00:36:45;;;;;;;0.40;0.27;;;;;;;9.37;100.00;98364.34;5013461;28;20488;-72
2022/02/21 00:39:12;;;;;;;0.40;0.30;;;;;;;9.42;100.00;98381.06;5013253;28;20950;-72
2022/02/21 00:41:38;;;;;;;0.40;0.30;;;;;;;9.52;100.00;98375.16;5013462;28;20451;-73
2022/02/21 00:44:05;;;;;;;0.40;0.30;;;;;;;9.63;100.00;98350.31;5013431;28;20460;-71
2022/02/21 00:46:32;;;;;;;0.40;0.30;;;;;;;9.62;100.00;98343.34;5013402;28;20499;-72
2022/02/21 00:48:58;;;;;;;0.40;0.30;;;;;;;9.66;100.00;98336.88;5013454;28;20444;-71
2022/02/21 00:51:26;;;;;;;0.40;0.30;;;;;;;9.72;100.00;98310.38;5013471;28;20539;-71
2022/02/21 00:53:53;;;;;;;0.40;0.30;;;;;;;9.77;100.00;98329.81;5017387;28;20518;-71
2022/02/21 00:56:19;;;;;;;0.40;0.30;;;;;;;9.79;100.00;98310.53;5017428;28;20487;-72
2022/02/21 00:58:45;;;;;;;0.40;0.30;;;;;;;9.85;100.00;98299.09;5017364;28;20510;-73
2022/02/21 01:01:12;;;;;;;0.40;0.30;;;;;;;9.94;100.00;98290.00;5017192;28;20451;-71
2022/02/21 01:03:38;;;;;;;0.40;0.30;;;;;;;10.03;100.00;98299.47;5016872;28;20981;-72
2022/02/21 01:06:05;;;;;;;0.40;0.27;;;;;;;10.11;98.77;98289.59;5017215;28;20524;-72
2022/02/21 01:08:33;;;;;;;0.40;0.30;;;;;;;10.20;98.63;98275.88;5017122;28;20444;-72
2022/02/21 01:10:59;;;;;;;0.40;0.30;;;;;;;10.17;99.14;98263.06;5018453;28;20443;-72
2022/02/21 01:13:26;;;;;;;0.40;0.20;;;;;;;10.21;97.57;98272.03;5017014;28;20463;-73
2022/02/21 01:15:53;;;;;;;0.40;0.20;;;;;;;10.21;97.78;98251.16;5016770;28;20456;-72
2022/02/21 01:18:19;;;;;;;0.40;0.30;;;;;;;10.23;97.15;98254.31;5016626;28;20996;-72
2022/02/21 01:20:46;;;;;;;0.40;0.20;;;;;;;10.29;97.84;98265.66;5016925;28;20448;-71
2022/02/21 01:23:13;;;;;;;0.40;0.20;;;;;;;10.28;96.76;98245.94;5016835;28;20463;-73
2022/02/21 01:25:41;;;;;;;0.40;0.30;;;;;;;10.22;97.25;98233.00;5016846;28;20444;-72
2022/02/21 01:28:07;;;;;;;0.40;0.30;;;;;;;10.35;95.57;98224.41;5016803;28;20490;-73
2022/02/21 01:30:34;;;;;;;0.40;0.30;;;;;;;10.38;95.34;98219.44;5016753;28;20470;-72
2022/02/21 01:33:00;;;;;;;0.40;0.30;;;;;;;10.38;95.50;98222.16;5016343;28;20459;-72
2022/02/21 01:35:27;;;;;;;0.40;0.30;;;;;;;10.45;94.66;98206.06;5016632;28;20521;-73
2022/02/21 01:37:53;;;;;;;0.40;0.30;;;;;;;10.43;94.63;98209.09;5016574;28;20858;-72
2022/02/21 01:40:20;;;;;;;0.40;0.30;;;;;;;10.46;94.84;98194.84;5016241;28;20444;-72
2022/02/21 01:42:48;;;;;;;0.40;0.30;;;;;;;10.50;94.95;98192.22;5016448;28;20503;-73
2022/02/21 01:45:15;;;;;;;0.40;0.30;;;;;;;10.53;92.54;98181.44;5016478;28;20444;-73
2022/02/21 01:47:41;;;;;;;0.40;0.30;;;;;;;10.59;91.87;98184.66;5016374;28;20451;-73
2022/02/21 01:50:08;;;;;;;0.40;0.30;;;;;;;10.72;90.66;98167.09;5016356;28;20460;-73
2022/02/21 01:52:35;;;;;;;0.40;0.30;;;;;;;10.75;90.56;98165.56;5016204;28;20460;-73
2022/02/21 01:55:05;;;;;;;0.40;0.30;;;;;;;10.79;89.37;98169.91;5016296;28;20444;-73
2022/02/21 01:57:31;;;;;;;0.40;0.30;;;;;;;10.85;89.53;98162.28;5015781;28;20494;-73
2022/02/21 01:59:59;;;;;;;0.40;0.30;;;;;;;10.82;89.54;98152.94;5016172;28;20444;-74
2022/02/21 02:02:26;;;;;;;0.40;0.30;;;;;;;10.86;88.65;98140.25;5015747;28;20482;-74
2022/02/21 02:04:52;;;;;;;0.40;0.30;;;;;;;10.89;88.49;98155.00;5014964;28;20801;-73
2022/02/21 02:07:19;;;;;;;0.40;0.30;;;;;;;10.89;87.76;98127.91;5016163;28;20440;-73
2022/02/21 02:09:45;;;;;;;0.40;0.30;;;;;;;10.91;87.72;98135.66;5016012;28;20472;-74
2022/02/21 02:12:12;;;;;;;0.40;0.30;;;;;;;10.89;88.01;98127.09;5016028;28;20459;-73
2022/02/21 02:14:40;;;;;;;0.40;0.23;;;;;;;10.83;88.71;98135.53;5015527;28;20468;-73
2022/02/21 02:17:10;;;;;;;0.40;0.30;;;;;;;10.80;89.82;98135.47;5015826;28;20484;-74
2022/02/21 02:19:39;;;;;;;0.40;0.20;;;;;;;10.77;89.68;98120.75;5015995;28;20451;-72
2022/02/21 02:22:10;;;;;;;0.40;0.30;;;;;;;10.76;90.27;98129.25;5015841;28;20440;-72
2022/02/21 02:24:37;;;;;;;0.40;0.30;;;;;;;10.68;91.81;98143.81;5015477;28;20903;-73
2022/02/21 02:27:04;;;;;;;0.40;0.30;;;;;;;10.58;94.59;98173.03;5015402;28;20506;-72
2022/02/21 02:29:31;;;;;;;0.40;0.30;;;;;;;10.35;98.30;98232.53;5015434;28;20490;-74
2022/02/21 02:31:57;;;;;;;0.40;0.30;;;;;;;10.11;100.00;98236.28;5015282;28;20950;-76
2022/02/21 02:34:23;;;;;;;0.40;0.30;;;;;;;9.81;100.00;98256.88;5015749;28;20455;-76
2022/02/21 02:36:51;;;;;;;0.40;0.30;;;;;;;9.58;100.00;98224.34;5015498;28;20480;-74
2022/02/21 02:39:19;;;;;;;0.40;0.27;;;;;;;9.35;100.00;98227.69;5015662;28;20444;-73
2022/02/21 02:41:45;;;;;;;0.40;0.30;;;;;;;9.13;100.00;98197.84;5015435;28;20447;-75
2022/02/21 02:44:12;;;;;;;0.40;0.30;;;;;;;8.80;100.00;98180.06;5015281;28;20468;-73
2022/02/21 02:46:38;;;;;;;0.40;0.30;;;;;;;8.56;100.00;98213.41;5015334;28;20459;-74
2022/02/21 02:49:05;;;;;;;0.40;0.30;;;;;;;8.45;100.00;98204.22;5014968;28;20946;-73
2022/02/21 02:51:31;;;;;;;0.40;0.30;;;;;;;8.40;100.00;98202.56;5014999;28;20942;-72
2022/02/21 02:53:58;;;;;;;0.40;0.30;;;;;;;8.31;100.00;98216.19;5015146;28;20468;-76
2022/02/21 02:56:26;;;;;;;0.40;0.30;;;;;;;8.23;100.00;98235.19;5014891;28;20930;-75
2022/02/21 02:58:52;;;;;;;0.40;0.30;;;;;;;8.20;100.00;98211.63;5015055;28;20896;-75
2022/02/21 03:01:19;;;;;;;0.40;0.20;;;;;;;8.14;100.00;98226.47;5014767;28;20463;-75
2022/02/21 03:03:45;;;;;;;0.40;0.30;;;;;;;8.15;99.82;98231.53;5014964;28;20834;-74
2022/02/21 03:06:12;;;;;;;0.40;0.20;;;;;;;8.11;98.68;98241.44;5014980;28;20447;-74
2022/02/21 03:08:38;;;;;;;0.40;0.30;;;;;;;8.10;99.33;98229.06;5014969;28;20448;-76
2022/02/21 03:11:04;;;;;;;0.40;0.30;;;;;;;8.09;98.64;98252.56;5014928;28;20819;-74
2022/02/21 03:13:32;;;;;;;0.40;0.20;;;;;;;8.07;97.42;98265.59;5014806;28;20474;-74
2022/02/21 03:15:59;;;;;;;0.40;0.30;;;;;;;8.09;96.80;98260.63;5013766;28;20447;-75
2022/02/21 03:18:25;;;;;;;0.40;0.27;;;;;;;8.13;95.45;98271.53;5014762;28;20490;-75
2022/02/21 03:20:51;;;;;;;0.40;0.30;;;;;;;8.07;97.25;98257.50;5014488;28;20937;-76
2022/02/21 03:23:18;;;;;;;0.40;0.30;;;;;;;7.98;98.90;98294.59;5014627;28;20463;-75
2022/02/21 03:25:44;;;;;;;0.40;0.20;;;;;;;7.84;100.00;98276.09;5014723;28;20444;-77
2022/02/21 03:28:11;;;;;;;0.40;0.30;;;;;;;7.83;99.21;98301.50;5014619;28;20451;-73
2022/02/21 03:30:38;;;;;;;0.40;0.20;;;;;;;7.79;100.00;98283.59;5014524;28;20443;-74
2022/02/21 03:33:07;;;;;;;0.40;0.30;;;;;;;7.77;99.18;98259.72;5014425;28;20468;-75
2022/02/21 03:35:33;;;;;;;0.40;0.30;;;;;;;7.80;97.82;98293.28;5014460;28;20448;-74
2022/02/21 03:38:00;;;;;;;0.40;0.20;;;;;;;7.83;96.79;98296.09;5014342;28;20483;-76
2022/02/21 03:40:26;;;;;;;0.40;0.20;;;;;;;7.81;95.32;98290.25;5014356;28;20815;-75
2022/02/21 03:42:53;;;;;;;0.40;0.30;;;;;;;7.88;94.21;98287.00;5014292;28;20464;-76
2022/02/21 03:45:22;;;;;;;0.40;0.30;;;;;;;7.89;91.88;98302.03;5014336;28;20451;-77
2022/02/21 03:47:50;;;;;;;0.40;0.20;;;;;;;7.97;92.09;98303.00;5014548;28;20459;-76
2022/02/21 03:50:17;;;;;;;0.40;0.30;;;;;;;7.95;94.10;98311.44;5014188;28;20856;-77
2022/02/21 03:52:43;;;;;;;0.40;0.30;;;;;;;7.89;92.61;98307.44;5014145;28;20897;-76
2022/02/21 03:55:11;;;;;;;0.40;0.30;;;;;;;8.02;91.23;98317.06;5014112;28;20448;-75
2022/02/21 03:57:38;;;;;;;0.40;0.20;;;;;;;8.02;91.37;98302.81;5014297;28;20487;-76
2022/02/21 04:00:06;;;;;;;0.40;0.30;;;;;;;8.00;91.83;98332.00;5013989;28;20432;-76
2022/02/21 04:02:33;;;;;;;0.40;0.30;;;;;;;7.98;91.76;98326.94;5013627;28;20994;-72
2022/02/21 04:05:01;;;;;;;0.40;0.30;;;;;;;7.96;92.28;98331.09;5013492;28;20960;-74
2022/02/21 04:07:27;;;;;;;0.40;0.30;;;;;;;8.01;92.50;98312.00;5013827;28;20447;-73
2022/02/21 04:09:54;;;;;;;0.40;0.20;;;;;;;7.98;92.27;98318.09;5013492;28;20946;-73
2022/02/21 04:12:20;;;;;;;0.40;0.20;;;;;;;7.97;91.45;98343.44;5013953;28;20467;-73
2022/02/21 04:14:47;;;;;;;0.40;0.30;;;;;;;7.97;89.85;98341.56;5013713;28;20447;-76
2022/02/21 04:17:13;;;;;;;0.40;0.30;;;;;;;8.02;91.04;98341.31;5013556;28;20480;-76
2022/02/21 04:19:40;;;;;;;0.40;0.30;;;;;;;7.98;90.44;98375.47;5013671;28;20498;-74
2022/02/21 04:22:10;;;;;;;0.40;0.20;;;;;;;7.98;88.90;98375.47;5013592;28;20530;-76
2022/02/21 04:24:37;;;;;;;0.40;0.30;;;;;;;8.02;89.28;98389.84;5013626;28;20436;-75
2022/02/21 04:27:03;;;;;;;0.40;0.30;;;;;;;8.02;88.53;98354.03;5013216;28;20444;-74
2022/02/21 04:29:30;;;;;;;0.40;0.30;;;;;;;7.92;87.75;98363.31;5013501;28;20866;-75
2022/02/21 04:31:57;;;;;;;0.40;0.30;;;;;;;7.91;87.00;98344.81;5013588;28;20452;-75
2022/02/21 04:34:24;;;;;;;0.40;0.30;;;;;;;7.86;86.15;98356.59;5013452;28;20452;-73
2022/02/21 04:36:50;;;;;;;0.40;0.30;;;;;;;7.87;85.00;98366.25;5013445;28;20530;-74
2022/02/21 04:39:18;;;;;;;0.40;0.30;;;;;;;7.82;86.46;98363.78;5013368;28;20507;-76
2022/02/21 04:41:44;;;;;;;0.40;0.30;;;;;;;7.74;88.40;98346.59;5013466;28;20478;-76
2022/02/21 04:44:11;;;;;;;0.40;0.30;;;;;;;7.72;87.22;98340.00;5013404;28;20464;-75
2022/02/21 04:46:37;;;;;;;0.40;0.20;;;;;;;7.68;87.24;98374.91;5013414;28;20444;-76
2022/02/21 04:49:04;;;;;;;0.40;0.30;;;;;;;7.70;87.21;98377.25;5013553;28;20447;-78
2022/02/21 04:51:30;;;;;;;0.40;0.30;;;;;;;7.67;88.07;98384.13;5013092;28;20448;-75
2022/02/21 04:53:57;;;;;;;0.40;0.30;;;;;;;7.63;88.24;98402.06;5013514;28;20463;-75
2022/02/21 04:56:24;;;;;;;0.40;0.30;;;;;;;7.63;86.81;98442.50;5013464;28;20526;-77
2022/02/21 04:58:51;;;;;;;0.40;0.20;;;;;;;7.57;85.87;98422.28;5013028;28;21064;-75
2022/02/21 05:01:18;;;;;;;0.40;0.20;;;;;;;7.48;87.24;98418.88;5013150;28;20479;-74
2022/02/21 05:03:44;;;;;;;0.40;0.23;;;;;;;7.46;85.72;98427.28;5013252;28;20479;-77
2022/02/21 05:06:11;;;;;;;0.40;0.20;;;;;;;7.43;85.90;98384.84;5013365;28;20447;-76
2022/02/21 05:08:37;;;;;;;0.40;0.30;;;;;;;7.42;85.96;98404.06;5013214;28;20432;-77
2022/02/21 05:11:05;;;;;;;0.40;0.30;;;;;;;7.42;84.15;98426.38;5013039;28;20455;-75
2022/02/21 05:13:33;;;;;;;0.40;0.30;;;;;;;7.41;83.81;98438.28;5013126;28;20471;-75
2022/02/21 05:15:59;;;;;;;0.40;0.30;;;;;;;7.37;82.83;98428.50;5013156;28;20447;-76
2022/02/21 05:18:26;;;;;;;0.40;0.20;;;;;;;7.31;82.86;98452.97;5013110;28;20487;-73
2022/02/21 05:20:52;;;;;;;0.40;0.30;;;;;;;7.23;83.49;98434.19;5013049;28;20448;-72
2022/02/21 05:23:19;;;;;;;0.40;0.30;;;;;;;7.26;84.03;98466.63;5012986;28;20571;-72
2022/02/21 05:25:45;;;;;;;0.40;0.30;;;;;;;7.21;82.54;98469.50;5012992;28;20506;-73
2022/02/21 05:28:12;;;;;;;0.40;0.30;;;;;;;7.18;82.48;98456.72;5012983;28;20494;-72
2022/02/21 05:30:40;;;;;;;0.40;0.30;;;;;;;7.10;81.92;98459.50;5012908;28;20858;-73
2022/02/21 05:33:06;;;;;;;0.40;0.30;;;;;;;7.06;82.27;98456.66;5012782;28;20499;-73
2022/02/21 05:35:33;;;;;;;0.40;0.30;;;;;;;7.10;81.28;98460.28;5012905;28;20494;-73
2022/02/21 05:37:59;;;;;;;0.40;0.30;;;;;;;7.07;81.91;98452.84;5012770;28;21057;-73
2022/02/21 05:40:25;;;;;;;0.40;0.30;;;;;;;7.09;80.74;98466.78;5015988;28;20440;-71
2022/02/21 05:42:52;;;;;;;0.40;0.30;;;;;;;7.04;82.72;98464.31;5016410;28;20455;-73
2022/02/21 05:45:19;;;;;;;0.40;0.30;;;;;;;7.07;81.60;98480.56;5016101;28;20506;-74
2022/02/21 05:47:46;;;;;;;0.40;0.20;;;;;;;7.03;83.25;98503.84;5016080;28;20443;-72
2022/02/21 05:50:13;;;;;;;0.40;0.20;;;;;;;7.01;83.36;98491.88;5015991;28;20502;-74
2022/02/21 05:52:40;;;;;;;0.40;0.30;;;;;;;6.83;84.41;98478.53;5015916;28;20506;-74
2022/02/21 05:55:07;;;;;;;0.40;0.30;;;;;;;6.74;85.84;98498.56;5016178;28;20494;-75
2022/02/21 05:57:33;;;;;;;0.40;0.30;;;;;;;6.72;84.59;98493.47;5016231;28;20447;-75
2022/02/21 06:00:02;;;;;;;0.40;0.30;;;;;;;6.75;82.86;98510.88;5016367;28;20451;-76
2022/02/21 06:02:28;;;;;;;0.40;0.20;;;;;;;6.74;85.40;98526.25;5015778;28;20880;-74
2022/02/21 06:04:56;;;;;;;0.40;0.20;;;;;;;6.48;86.44;98557.88;5016181;28;20447;-74
2022/02/21 06:07:22;;;;;;;0.40;0.30;;;;;;;6.18;87.11;98573.94;5015835;28;20459;-74
2022/02/21 06:09:49;;;;;;;0.40;0.30;;;;;;;5.95;87.71;98583.34;5016132;28;20478;-74
2022/02/21 06:12:16;;;;;;;0.40;0.30;;;;;;;5.81;88.52;98589.66;5015991;28;20867;-74
2022/02/21 06:14:42;;;;;;;0.40;0.30;;;;;;;5.75;86.99;98582.06;5015989;28;20439;-73
2022/02/21 06:17:09;;;;;;;0.40;0.30;;;;;;;5.72;89.13;98593.47;5015970;28;20877;-74
2022/02/21 06:19:35;;;;;;;0.40;0.30;;;;;;;5.68;87.91;98617.50;5015844;28;20480;-74
2022/02/21 06:22:03;;;;;;;0.40;0.30;;;;;;;5.57;84.38;98630.44;5015831;28;20440;-75
2022/02/21 06:24:30;;;;;;;0.40;0.30;;;;;;;5.58;84.19;98615.13;5015784;28;20526;-76
2022/02/21 06:26:56;;;;;;;0.40;0.30;;;;;;;5.46;85.18;98618.44;5015815;28;20448;-73
2022/02/21 06:29:23;;;;;;;0.40;0.30;;;;;;;5.49;84.76;98633.09;5015748;28;20451;-73
2022/02/21 06:31:49;;;;;;;0.40;0.30;;;;;;;5.52;84.80;98646.69;5015345;28;20984;-74
2022/02/21 06:34:16;;;;;;;0.40;0.30;;;;;;;5.51;84.47;98653.19;5015486;28;20471;-75
2022/02/21 06:36:42;;;;;;;0.40;0.20;;;;;;;5.51;84.57;98653.19;5015622;28;20451;-74
2022/02/21 06:39:10;;;;;;;0.40;0.30;;;;;;;5.45;86.10;98654.44;5015314;28;20483;-76
2022/02/21 06:41:36;;;;;;;0.40;0.20;;;;;;;5.48;84.75;98647.66;5015327;28;20440;-76
2022/02/21 06:44:03;;;;;;;0.40;0.30;;;;;;;5.52;84.21;98660.13;5015092;28;20981;-76
2022/02/21 06:46:29;;;;;;;0.40;0.30;;;;;;;5.50;85.13;98664.25;5015330;28;20451;-76
2022/02/21 06:48:56;;;;;;;0.40;0.30;;;;;;;5.50;84.67;98661.56;5015379;28;20821;-76
2022/02/21 06:51:22;;;;;;;0.40;0.30;;;;;;;5.55;86.10;98680.19;5014731;28;20829;-75
2022/02/21 06:53:48;;;;;;;0.40;0.20;;;;;;;5.57;85.44;98680.66;5015197;28;20464;-75
2022/02/21 06:56:16;;;;;;;0.40;0.30;;;;;;;5.63;85.37;98684.78;5015436;28;20444;-74
2022/02/21 06:58:42;;;;;;;0.40;0.30;;;;;;;5.61;86.66;98692.34;5014773;28;21012;-74
2022/02/21 07:01:09;;;;;;;0.40;0.23;;;;;;;5.69;85.97;98680.84;5014803;28;20463;-75
2022/02/21 07:03:35;;;;;;;0.40;0.30;;;;;;;5.71;86.19;98700.13;5014994;28;20510;-76
2022/02/21 07:06:03;;;;;;;0.40;0.20;;;;;;;5.68;85.74;98695.38;5014945;28;20444;-74
2022/02/21 07:08:29;;;;;;;0.40;0.30;;;;;;;5.70;86.38;98708.47;5014748;28;20950;-74
2022/02/21 07:10:56;;;;;;;0.40;0.30;;;;;;;5.66;86.79;98720.97;5016312;28;20452;-74
2022/02/21 07:13:24;;;;;;;0.40;0.20;;;;;;;5.66;89.37;98739.75;5014817;28;20455;-74
2022/02/21 07:15:50;;;;;;;0.40;0.30;;;;;;;5.43;93.39;98782.84;5014707;28;20448;-74
2022/02/21 07:18:16;;;;;;;0.40;0.20;;;;;;;5.05;96.06;98764.56;5014762;28;20455;-75
2022/02/21 07:20:43;;;;;;;0.40;0.30;;;;;;;4.76;98.84;98762.34;5014416;28;20872;-76
2022/02/21 07:23:09;;;;;;;0.40;0.23;;;;;;;4.55;100.00;98737.13;5014656;28;20495;-80
2022/02/21 07:25:36;;;;;;;0.40;0.30;;;;;;;4.39;100.00;98742.09;5018022;28;20444;-76
2022/02/21 07:28:02;;;;;;;0.40;0.30;;;;;;;4.22;100.00;98755.38;5014517;28;20451;-76
2022/02/21 07:30:30;;;;;;;0.40;0.20;;;;;;;4.19;100.00;98762.13;5014655;28;20452;-76
2022/02/21 07:32:57;;;;;;;0.40;0.27;;;;;;;4.15;100.00;98763.03;5014447;28;20459;-76
2022/02/21 07:35:24;;;;;;;0.40;0.30;;;;;;;4.14;100.00;98756.88;5014482;28;20455;-76
2022/02/21 07:37:50;;;;;;;0.40;0.30;;;;;;;4.21;100.00;98751.13;5015003;28;20448;-78
2022/02/21 07:40:17;;;;;;;0.40;0.30;;;;;;;4.23;100.00;98757.75;5015079;28;20498;-78
2022/02/21 07:42:49;;;;;;;0.40;0.30;;;;;;;4.34;100.00;98755.63;5014873;28;20468;-78
2022/02/21 07:45:16;;;;;;;0.40;0.30;;;;;;;4.33;100.00;98762.06;5014706;28;20440;-77
2022/02/21 07:47:45;;;;;;;0.40;0.30;;;;;;;4.36;100.00;98774.88;5014288;28;20443;-74
2022/02/21 07:50:11;;;;;;;0.40;0.20;;;;;;;4.49;100.00;98767.88;5014190;28;20451;-73
2022/02/21 07:52:38;;;;;;;0.40;0.30;;;;;;;4.61;100.00;98780.72;5013838;28;20989;-73
2022/02/21 07:55:05;;;;;;;0.40;0.30;;;;;;;4.75;100.00;98776.84;5014122;28;20447;-75
2022/02/21 07:57:32;;;;;;;0.40;0.20;;;;;;;4.86;99.13;98782.75;5013816;28;20452;-76
2022/02/21 07:59:58;;;;;;;0.40;0.20;;;;;;;4.93;98.26;98799.19;5014067;28;20898;-75
2022/02/21 08:02:25;;;;;;;0.40;0.30;;;;;;;5.01;95.41;98774.31;5013280;28;20476;-73
2022/02/21 08:04:53;;;;;;;0.40;0.20;;;;;;;5.10;92.20;98793.13;5013964;28;20436;-77
2022/02/21 08:07:20;;;;;;;0.40;0.30;;;;;;;5.24;89.15;98790.34;5013917;28;20957;-74
2022/02/21 08:09:46;;;;;;;0.40;0.30;;;;;;;5.27;89.94;98798.59;5013630;28;20432;-71
2022/02/21 08:12:13;;;;;;;0.40;0.30;;;;;;;5.31;90.01;98794.19;5013812;28;20792;-72
2022/02/21 08:14:39;;;;;;;0.40;0.20;;;;;;;5.39;88.12;98789.13;5013843;28;20449;-72
2022/02/21 08:17:05;;;;;;;0.40;0.30;;;;;;;5.50;90.29;98815.41;5013777;28;20454;-72
2022/02/21 08:19:32;;;;;;;0.40;0.20;;;;;;;5.55;84.55;98820.63;5013672;28;20487;-73
2022/02/21 08:22:00;;;;;;;0.40;0.30;;;;;;;5.61;85.41;98807.84;5013627;28;20440;-72
2022/02/21 08:24:26;;;;;;;0.40;0.27;;;;;;;5.64;85.40;98817.97;5013752;28;20444;-75
2022/02/21 08:26:53;;;;;;;0.40;0.30;;;;;;;5.60;84.74;98792.84;5013688;28;20440;-74
2022/02/21 08:29:19;;;;;;;0.40;0.30;;;;;;;5.58;84.22;98811.16;5013361;28;20941;-73
2022/02/21 08:31:46;;;;;;;0.40;0.30;;;;;;;5.60;83.92;98816.22;5013650;28;20450;-73
2022/02/21 08:34:13;;;;;;;0.40;0.30;;;;;;;5.60;82.61;98810.84;5013595;28;20514;-74
2022/02/21 08:36:40;;;;;;;0.40;0.20;;;;;;;5.59;82.02;98834.22;5013563;28;20447;-74
2022/02/21 08:39:08;;;;;;;0.40;0.20;;;;;;;5.64;81.01;98817.97;5013321;28;21025;-73
2022/02/21 08:41:34;;;;;;;0.40;0.20;;;;;;;5.67;81.01;98838.84;5013561;28;20443;-72
2022/02/21 08:44:01;;;;;;;0.40;0.30;;;;;;;5.73;81.37;98840.28;5013478;28;21111;-72
2022/02/21 08:46:27;;;;;;;0.40;0.30;;;;;;;5.73;80.80;98842.97;5013509;28;20817;-73
2022/02/21 08:48:54;;;;;;;0.40;0.20;;;;;;;5.79;81.34;98847.06;5013439;28;20444;-71
2022/02/21 08:51:21;;;;;;;0.40;0.30;;;;;;;5.87;80.31;98875.06;5013440;28;20505;-72
2022/02/21 08:53:47;;;;;;;0.40;0.30;;;;;;;5.89;79.28;98856.75;5013088;28;21055;-73
2022/02/21 08:56:15;;;;;;;0.40;0.30;;;;;;;5.92;78.92;98855.34;5013380;28;20451;-72
2022/02/21 08:58:42;;;;;;;0.40;0.30;;;;;;;6.02;80.53;98855.88;5013318;28;20820;-72
2022/02/21 09:01:08;;;;;;;0.40;0.20;;;;;;;6.03;79.88;98856.66;5013061;28;20451;-71
2022/02/21 09:03:34;;;;;;;0.40;0.30;;;;;;;6.07;79.53;98858.41;5013277;28;20518;-71
2022/02/21 09:06:01;;;;;;;0.40;0.30;;;;;;;6.04;77.08;98869.00;5013331;28;20455;-73
2022/02/21 09:08:31;;;;;;;0.40;0.20;;;;;;;6.11;77.46;98877.38;5013385;28;20452;-72
2022/02/21 09:10:58;;;;;;;0.40;0.23;;;;;;;6.16;77.69;98896.06;5013336;28;20428;-72
2022/02/21 09:13:26;;;;;;;0.40;0.23;;;;;;;6.13;75.87;98880.53;5015028;28;20456;-72
2022/02/21 09:15:52;;;;;;;0.40;0.30;;;;;;;6.17;79.00;98873.44;5017179;28;20448;-72
2022/02/21 09:18:19;;;;;;;0.40;0.20;;;;;;;6.20;77.42;98880.09;5017251;28;20444;-73
2022/02/21 09:20:45;;;;;;;0.40;0.30;;;;;;;6.20;76.01;98875.50;5017025;28;20483;-72
2022/02/21 09:23:12;;;;;;;0.40;0.20;;;;;;;6.25;77.68;98878.03;5016912;28;20472;-72
2022/02/21 09:25:38;;;;;;;0.40;0.20;;;;;;;6.30;77.67;98888.63;5017242;28;20452;-72
2022/02/21 09:28:05;;;;;;;0.40;0.30;;;;;;;6.34;73.66;98879.97;5017087;28;20454;-73
2022/02/21 09:30:32;;;;;;;0.40;0.30;;;;;;;6.36;72.61;98907.31;5016550;28;20988;-72
2022/02/21 09:32:59;;;;;;;0.40;0.30;;;;;;;6.40;72.30;98884.06;5016890;28;20463;-72
2022/02/21 09:35:25;;;;;;;0.40;0.30;;;;;;;6.39;71.75;98901.31;5016791;28;20498;-72
2022/02/21 09:37:52;;;;;;;0.40;0.20;;;;;;;6.39;73.21;98893.25;5016514;28;20950;-72
2022/02/21 09:40:19;;;;;;;0.40;0.30;;;;;;;6.36;72.89;98883.09;5016654;28;20487;-72
2022/02/21 09:42:48;;;;;;;0.40;0.30;;;;;;;6.31;71.10;98911.72;5016640;28;20456;-73
2022/02/21 09:45:17;;;;;;;0.40;0.30;;;;;;;6.35;71.81;98901.13;5016709;28;20452;-72
2022/02/21 09:47:45;;;;;;;0.40;0.30;;;;;;;6.37;70.82;98898.91;5016450;28;20820;-71
2022/02/21 09:50:12;;;;;;;0.40;0.20;;;;;;;6.43;70.42;98896.88;5016452;28;20444;-70
2022/02/21 09:52:39;;;;;;;1.73;1.63;;;;;;;6.58;69.50;98905.28;5016088;28;20902;-71
2022/02/21 09:55:06;;;;;;;0.40;0.30;;;;;;;6.67;70.01;98897.19;5016376;28;20447;-72
2022/02/21 09:57:32;;;;;;;0.40;0.20;;;;;;;6.68;70.77;98904.16;5016313;28;20444;-72
2022/02/21 09:59:59;;;;;;;0.40;0.30;;;;;;;6.68;68.62;98892.63;5016180;28;20886;-71
2022/02/21 10:02:29;;;;;;;0.40;0.20;;;;;;;6.69;69.14;98908.47;5016096;28;20522;-72
2022/02/21 10:05:15;;;;;;;0.40;0.20;;;;;;;6.76;67.41;98910.66;5016168;28;20479;-71
2022/02/21 10:07:43;;;;;;;0.40;0.20;;;;;;;6.77;65.94;98906.84;5016453;28;20432;-71
2022/02/21 10:10:11;;;;;;;0.40;0.30;;;;;;;6.74;67.25;98932.50;5016401;28;20440;-70
2022/02/21 10:12:45;;;;;;;0.40;0.30;;;;;;;6.80;66.93;98925.84;5016014;28;20491;-71
2022/02/21 10:15:14;;;;;;;0.40;0.30;;;;;;;6.80;67.35;98920.47;5015992;28;20771;-72
2022/02/21 10:17:40;;;;;;;0.40;0.20;;;;;;;6.82;66.50;98920.97;5015980;28;20444;-72
2022/02/21 10:20:09;;;;;;;0.40;0.20;;;;;;;6.85;67.57;98930.28;5015740;28;20484;-72
2022/02/21 10:22:37;;;;;;;0.40;0.30;;;;;;;6.79;68.02;98937.72;5015794;28;20922;-72
2022/02/21 10:25:15;;;;;;;0.40;0.23;;;;;;;6.79;66.47;98934.25;5014890;28;20961;-72
2022/02/21 10:27:42;;;;;;;0.40;0.20;;;;;;;6.81;66.35;98938.19;5015795;28;20853;-72
2022/02/21 10:30:10;;;;;;;0.40;0.20;;;;;;;6.83;65.22;98924.44;5015750;28;20448;-71
2022/02/21 10:32:38;;;;;;;0.40;0.20;;;;;;;6.84;65.85;98936.78;5015579;28;20467;-71
2022/02/21 10:35:11;;;;;;;0.40;0.30;;;;;;;6.86;66.53;98947.22;5015349;28;20963;-70
2022/02/21 10:37:44;;;;;;;0.40;0.30;;;;;;;6.86;67.27;98937.25;5015648;28;20776;-71
2022/02/21 10:40:13;;;;;;;0.40;0.30;;;;;;;6.89;67.86;98943.91;5015505;28;20566;-70
2022/02/21 10:42:40;;;;;;;0.40;0.30;;;;;;;6.83;68.43;98948.66;5015532;28;20526;-71
2022/02/21 10:45:13;;;;;;;0.40;0.30;;;;;;;6.84;69.44;98952.94;5015516;28;20443;-71
2022/02/21 10:47:40;;;;;;;0.40;0.30;;;;;;;6.79;70.29;98959.25;5015501;28;20447;-71
2022/02/21 10:50:07;;;;;;;0.40;0.30;;;;;;;6.80;69.21;98958.13;5015390;28;20814;-72
2022/02/21 10:52:36;;;;;;;0.40;0.30;;;;;;;6.87;68.91;98948.81;5015212;28;21000;-72
2022/02/21 10:55:06;;;;;;;0.40;0.30;;;;;;;6.90;69.73;98940.88;5015220;28;20448;-71
2022/02/21 10:57:40;;;;;;;0.40;0.30;;;;;;;6.92;68.80;98943.28;5015233;28;20523;-71
2022/02/21 11:00:09;;;;;;;0.40;0.20;;;;;;;6.91;69.16;98944.41;5015212;28;20888;-71
2022/02/21 11:02:38;;;;;;;0.40;0.30;;;;;;;6.78;69.42;98951.50;5014728;28;20460;-72
2022/02/21 11:05:07;;;;;;;0.40;0.30;;;;;;;6.82;70.83;98958.63;5015218;28;20450;-71
2022/02/21 11:07:34;;;;;;;0.40;0.20;;;;;;;6.82;68.85;98969.41;5015261;28;20444;-72
2022/02/21 11:10:03;;;;;;;0.40;0.30;;;;;;;6.87;67.13;98968.44;5014754;28;20440;-72
2022/02/21 11:12:35;;;;;;;0.40;0.30;;;;;;;6.90;67.03;98964.31;5014600;28;20478;-71
2022/02/21 11:15:02;;;;;;;0.40;0.27;;;;;;;6.94;70.85;98965.28;5014630;28;20930;-73
2022/02/21 11:17:30;;;;;;;0.40;0.20;;;;;;;6.98;69.12;98971.59;5014459;28;20960;-74
2022/02/21 11:19:56;;;;;;;0.40;0.30;;;;;;;6.98;67.57;98966.22;5014749;28;20534;-72
2022/02/21 11:22:24;;;;;;;2.53;2.43;;;;;;;7.00;69.22;98974.78;5014746;28;20518;-71
2022/02/21 11:24:53;;;;;;;0.40;0.20;;;;;;;7.04;66.93;98959.59;5014720;28;20456;-72
2022/02/21 11:27:31;;;;;;;0.40;0.30;;;;;;;7.08;67.98;98982.88;5014622;28;21004;-72
2022/02/21 11:30:06;;;;;;;0.40;0.30;;;;;;;6.98;64.88;98969.69;5014380;28;20430;-73
2022/02/21 11:32:32;;;;;;;0.40;0.27;;;;;;;7.01;66.80;98965.59;5014594;28;20491;-72
2022/02/21 11:35:15;;;;;;;0.40;0.30;;;;;;;6.92;64.63;98975.56;5014231;28;20498;-72
2022/02/21 11:37:41;;;;;;;0.40;0.30;;;;;;;6.90;66.26;98980.47;5013627;28;20494;-71